CYRV

Revelstoke Airport

Revelstoke, British Columbia, Canada
METAR CYRV 222100Z AUTO 34010KT 9SM OVC085 11/M05 A3031 RMK SLP277
Observed Flight Rules
Apr-22 @ 21:00 UTC (48 minutes ago) Visual Flight Rules
Wind Visibility Clouds
340° at 10 knots 9 miles
  • Overcast at 8,500' AGL
Temperatures Readings
Current 11°C / 52°F
Dewpoint -5°C / 23°F
Humidity 32%
Altimeter 30.31" Hg
Pressure 1027.7 hPa
Elevation 443
METAR CYRV 222100Z AUTO 34010KT 9SM OVC085 11/M05 A3031 RMK SLP277
Observed Flight Rules
Apr-22 @ 21:00 UTC
(48 minutes ago)
VFR
Wind Visibility
340° at 10 knots 9 miles
Clouds
  • Overcast at 8,500' AGL
Temperature Dewpoint
11°C / 52°F -5°C / 23°F
Humidity Altimeter Pressure
32% 30.31" Hg 1027.7 hPa